Time,TemperatureF,DewpointF,PressureIn,WindDirection,WindDirectionDegrees,WindSpeedMPH,WindSpeedGustMPH,Humidity,HourlyPrecipIn,Conditions,Clouds,dailyrainin,SoftwareType,DateUTC
2013-08-22 00:06:00,73.5,71.0,30.07,South,188,0.0,1.0,91,0.00,,,0.00,weatherlink.com 1.10,2013-08-22 04:06:00,
2013-08-22 00:21:00,73.3,71.0,30.07,South,188,0.0,1.0,91,0.00,,,0.00,weatherlink.com 1.10,2013-08-22 04:21:00,
2013-08-22 00:37:00,73.1,71.0,30.07,South,188,0.0,0.0,92,0.00,,,0.00,weatherlink.com 1.10,2013-08-22 04:37:00,
2013-08-22 00:52:00,73.5,71.0,30.08,South,188,0.0,0.0,91,0.00,,,0.00,weatherlink.com 1.10,2013-08-22 04:52:00,
2013-08-22 01:07:00,73.7,71.0,30.08,South,188,0.0,0.0,91,0.00,,,0.00,weatherlink.com 1.10,2013-08-22 05:07:00,
2013-08-22 01:22:00,73.9,71.0,30.08,South,188,0.0,0.0,91,0.00,,,0.00,weatherlink.com 1.10,2013-08-22 05:22:00,
2013-08-22 01:39:00,73.9,71.0,30.09,South,188,0.0,0.0,91,0.00,,,0.00,weatherlink.com 1.10,2013-08-22 05:39:00,
2013-08-22 01:54:00,73.5,71.0,30.09,South,188,0.0,0.0,92,0.00,,,0.00,weatherlink.com 1.10,2013-08-22 05:54:00,
2013-08-22 02:09:00,73.3,71.0,30.08,South,181,0.0,1.0,92,0.00,,,0.00,weatherlink.com 1.10,2013-08-22 06:09:00,
2013-08-22 02:24:00,73.2,71.0,30.08,South,178,0.0,1.0,92,0.00,,,0.00,weatherlink.com 1.10,2013-08-22 06:24:00,
2013-08-22 02:39:00,73.1,71.0,30.07,South,178,0.0,0.0,93,0.00,,,0.00,weatherlink.com 1.10,2013-08-22 06:39:00,
2013-08-22 02:54:00,73.3,71.0,30.07,SSW,202,0.0,0.0,93,0.00,,,0.00,weatherlink.com 1.10,2013-08-22 06:54:00,
2013-08-22 03:09:00,73.0,71.0,30.06,SSW,202,0.0,1.0,94,0.00,,,0.00,weatherlink.com 1.10,2013-08-22 07:09:00,
2013-08-22 03:24:00,72.8,71.0,30.06,SSW,202,0.0,0.0,94,0.00,,,0.00,weatherlink.com 1.10,2013-08-22 07:24:00,
2013-08-22 03:40:00,72.5,71.0,30.05,SSW,202,0.0,0.0,95,0.00,,,0.00,weatherlink.com 1.10,2013-08-22 07:40:00,
2013-08-22 03:55:00,72.1,71.0,30.05,SSW,202,0.0,0.0,95,0.00,,,0.00,weatherlink.com 1.10,2013-08-22 07:55:00,
2013-08-22 04:10:00,71.7,71.0,30.04,SSW,202,0.0,0.0,96,0.00,,,0.00,weatherlink.com 1.10,2013-08-22 08:10:00,
2013-08-22 04:26:00,71.3,70.0,30.04,SSW,202,0.0,0.0,96,0.00,,,0.00,weatherlink.com 1.10,2013-08-22 08:26:00,
2013-08-22 04:41:00,71.1,70.0,30.04,SSW,202,0.0,0.0,96,0.00,,,0.00,weatherlink.com 1.10,2013-08-22 08:41:00,
2013-08-22 04:56:00,71.0,70.0,30.04,NNW,331,1.0,3.0,95,0.00,,,0.00,weatherlink.com 1.10,2013-08-22 08:56:00,
2013-08-22 05:11:00,71.2,69.0,30.03,WSW,254,0.0,1.0,91,0.00,,,0.00,weatherlink.com 1.10,2013-08-22 09:11:00,
2013-08-22 05:27:00,70.8,68.0,30.04,West,271,0.0,2.0,91,0.00,,,0.00,weatherlink.com 1.10,2013-08-22 09:27:00,
2013-08-22 05:42:00,70.6,68.0,30.04,West,271,0.0,1.0,91,0.00,,,0.00,weatherlink.com 1.10,2013-08-22 09:42:00,
2013-08-22 05:57:00,70.6,68.0,30.04,West,271,0.0,0.0,91,0.00,,,0.00,weatherlink.com 1.10,2013-08-22 09:57:00,
2013-08-22 06:12:00,70.6,68.0,30.03,West,271,0.0,1.0,91,0.00,,,0.00,weatherlink.com 1.10,2013-08-22 10:12:00,
2013-08-22 06:27:00,70.5,68.0,30.04,WSW,239,0.0,2.0,91,0.00,,,0.00,weatherlink.com 1.10,2013-08-22 10:27:00,
2013-08-22 06:44:00,70.1,68.0,30.03,WSW,239,0.0,1.0,92,0.00,,,0.00,weatherlink.com 1.10,2013-08-22 10:44:00,
2013-08-22 08:29:00,71.9,69.0,30.04,SW,229,0.0,3.0,89,0.00,,,0.00,weatherlink.com 1.10,2013-08-22 12:29:00,
2013-08-22 08:45:00,72.4,69.0,30.04,WSW,248,0.0,5.0,89,0.00,,,0.00,weatherlink.com 1.10,2013-08-22 12:45:00,
2013-08-22 09:00:00,72.7,69.0,30.05,SW,225,2.0,5.0,87,0.00,,,0.00,weatherlink.com 1.10,2013-08-22 13:00:00,
2013-08-22 09:15:00,73.1,69.0,30.05,WSW,241,0.0,3.0,87,0.00,,,0.00,weatherlink.com 1.10,2013-08-22 13:15:00,
2013-08-22 09:31:00,73.0,69.0,30.05,West,263,0.0,7.0,87,0.00,,,0.00,weatherlink.com 1.10,2013-08-22 13:31:00,
2013-08-22 09:46:00,73.9,70.0,30.05,WSW,247,0.0,3.0,86,0.00,,,0.00,weatherlink.com 1.10,2013-08-22 13:46:00,
2013-08-22 10:01:00,75.1,70.0,30.05,WSW,240,0.0,3.0,85,0.00,,,0.00,weatherlink.com 1.10,2013-08-22 14:01:00,
2013-08-22 10:16:00,75.1,70.0,30.05,SW,221,4.0,4.0,84,0.00,,,0.00,weatherlink.com 1.10,2013-08-22 14:16:00,
2013-08-22 10:32:00,76.1,71.0,30.04,WNW,294,2.0,2.0,83,0.00,,,0.00,weatherlink.com 1.10,2013-08-22 14:32:00,
2013-08-22 10:47:00,76.5,70.0,30.04,West,263,0.0,6.0,81,0.00,,,0.00,weatherlink.com 1.10,2013-08-22 14:47:00,
2013-08-22 11:17:00,79.6,72.0,30.04,West,277,1.0,7.0,77,0.00,,,0.00,weatherlink.com 1.10,2013-08-22 15:17:00,
2013-08-22 11:35:00,79.7,72.0,30.04,WSW,258,4.0,7.0,76,0.00,,,0.00,weatherlink.com 1.10,2013-08-22 15:35:00,
2013-08-22 11:49:00,78.2,70.0,30.04,North,351,1.0,7.0,76,0.00,,,0.00,weatherlink.com 1.10,2013-08-22 15:49:00,
2013-08-22 12:04:00,77.1,69.0,30.03,NW,321,2.0,4.0,77,0.00,,,0.00,weatherlink.com 1.10,2013-08-22 16:04:00,
2013-08-22 12:19:00,78.1,70.0,30.03,NW,319,3.0,9.0,77,0.00,,,0.00,weatherlink.com 1.10,2013-08-22 16:19:00,
2013-08-22 12:34:00,80.3,71.0,30.03,WSW,256,4.0,6.0,73,0.00,,,0.00,weatherlink.com 1.10,2013-08-22 16:34:00,
2013-08-22 12:49:00,80.9,71.0,30.03,WNW,298,3.0,7.0,72,0.00,,,0.00,weatherlink.com 1.10,2013-08-22 16:49:00,
2013-08-22 13:04:00,79.3,69.0,30.01,WNW,286,3.0,7.0,71,0.00,,,0.00,weatherlink.com 1.10,2013-08-22 17:04:00,
2013-08-22 13:19:00,80.6,70.0,30.01,NW,309,3.0,7.0,71,0.00,,,0.00,weatherlink.com 1.10,2013-08-22 17:19:00,
2013-08-22 13:35:00,81.2,71.0,30.00,WNW,292,1.0,5.0,71,0.00,,,0.00,weatherlink.com 1.10,2013-08-22 17:35:00,
2013-08-22 13:50:00,80.4,69.0,29.99,WNW,303,1.0,5.0,69,0.00,,,0.00,weatherlink.com 1.10,2013-08-22 17:50:00,
2013-08-22 14:06:00,79.6,70.0,29.99,WNW,300,0.0,5.0,73,0.00,,,0.00,weatherlink.com 1.10,2013-08-22 18:06:00,
2013-08-22 14:20:00,80.1,71.0,29.98,WNW,290,0.0,7.0,73,0.00,,,0.00,weatherlink.com 1.10,2013-08-22 18:20:00,
2013-08-22 14:36:00,79.9,72.0,29.98,NW,313,2.0,6.0,76,0.00,,,0.00,weatherlink.com 1.10,2013-08-22 18:36:00,
2013-08-22 14:51:00,81.8,72.0,29.97,WSW,249,3.0,6.0,73,0.00,,,0.00,weatherlink.com 1.10,2013-08-22 18:51:00,
2013-08-22 15:06:00,82.5,70.0,29.97,NW,320,4.0,9.0,67,0.00,,,0.00,weatherlink.com 1.10,2013-08-22 19:06:00,
2013-08-22 15:22:00,82.9,70.0,29.96,NE,53,0.0,7.0,66,0.00,,,0.00,weatherlink.com 1.10,2013-08-22 19:22:00,
2013-08-22 15:37:00,84.2,71.0,29.96,SW,236,3.0,6.0,64,0.00,,,0.00,weatherlink.com 1.10,2013-08-22 19:37:00,
2013-08-22 15:52:00,83.3,70.0,29.95,WSW,249,1.0,6.0,64,0.00,,,0.00,weatherlink.com 1.10,2013-08-22 19:52:00,
2013-08-22 16:08:00,84.1,71.0,29.95,WNW,296,3.0,5.0,64,0.00,,,0.00,weatherlink.com 1.10,2013-08-22 20:08:00,
2013-08-22 16:22:00,83.3,69.0,29.94,West,281,0.0,6.0,63,0.00,,,0.00,weatherlink.com 1.10,2013-08-22 20:22:00,
2013-08-22 16:39:00,82.9,70.0,29.94,WNW,283,1.0,6.0,65,0.00,,,0.00,weatherlink.com 1.10,2013-08-22 20:39:00,
2013-08-22 16:54:00,81.9,70.0,29.94,NW,311,2.0,4.0,67,0.00,,,0.00,weatherlink.com 1.10,2013-08-22 20:54:00,
2013-08-22 17:09:00,82.1,71.0,29.93,SSW,200,2.0,3.0,68,0.00,,,0.00,weatherlink.com 1.10,2013-08-22 21:09:00,
2013-08-22 17:24:00,83.4,70.0,29.93,WNW,296,0.0,7.0,65,0.00,,,0.00,weatherlink.com 1.10,2013-08-22 21:24:00,
2013-08-22 17:39:00,83.8,70.0,29.93,NW,315,1.0,6.0,64,0.00,,,0.00,weatherlink.com 1.10,2013-08-22 21:39:00,
2013-08-22 17:54:00,82.8,69.0,29.93,SW,233,2.0,7.0,64,0.00,,,0.00,weatherlink.com 1.10,2013-08-22 21:54:00,
2013-08-22 18:09:00,82.6,70.0,29.93,WNW,295,2.0,3.0,65,0.00,,,0.00,weatherlink.com 1.10,2013-08-22 22:09:00,
2013-08-22 18:24:00,82.2,69.0,29.93,NNW,329,0.0,6.0,64,0.00,,,0.00,weatherlink.com 1.10,2013-08-22 22:24:00,
2013-08-22 18:40:00,81.5,69.0,29.93,WSW,243,0.0,7.0,65,0.00,,,0.00,weatherlink.com 1.10,2013-08-22 22:40:00,
2013-08-22 18:55:00,81.4,69.0,29.92,NW,308,1.0,4.0,65,0.00,,,0.00,weatherlink.com 1.10,2013-08-22 22:55:00,
2013-08-22 19:10:00,81.1,68.0,29.92,West,262,0.0,3.0,65,0.00,,,0.00,weatherlink.com 1.10,2013-08-22 23:10:00,
2013-08-22 19:25:00,80.2,68.0,29.91,SW,223,0.0,2.0,67,0.00,,,0.00,weatherlink.com 1.10,2013-08-22 23:25:00,
2013-08-22 19:41:00,77.9,69.0,29.92,SW,223,0.0,0.0,73,0.00,,,0.00,weatherlink.com 1.10,2013-08-22 23:41:00,
2013-08-22 19:56:00,76.7,69.0,29.92,SW,223,0.0,0.0,76,0.00,,,0.00,weatherlink.com 1.10,2013-08-22 23:56:00,
2013-08-22 20:11:00,76.0,69.0,29.93,SW,223,0.0,0.0,78,0.00,,,0.00,weatherlink.com 1.10,2013-08-23 00:11:00,
2013-08-22 20:26:00,75.5,69.0,29.93,SW,223,0.0,0.0,80,0.00,,,0.00,weatherlink.com 1.10,2013-08-23 00:26:00,
2013-08-22 20:41:00,75.4,69.0,29.93,SW,223,0.0,0.0,81,0.00,,,0.00,weatherlink.com 1.10,2013-08-23 00:41:00,
2013-08-22 20:57:00,75.1,69.0,29.94,SW,223,0.0,0.0,82,0.00,,,0.00,weatherlink.com 1.10,2013-08-23 00:57:00,
2013-08-22 21:12:00,74.8,69.0,29.94,SW,223,0.0,0.0,83,0.00,,,0.00,weatherlink.com 1.10,2013-08-23 01:12:00,
2013-08-22 21:27:00,75.0,70.0,29.95,SW,221,0.0,2.0,83,0.00,,,0.00,weatherlink.com 1.10,2013-08-23 01:27:00,
2013-08-22 21:44:00,74.7,69.0,29.94,WSW,238,0.0,2.0,83,0.00,,,0.00,weatherlink.com 1.10,2013-08-23 01:44:00,
2013-08-22 21:59:00,76.2,68.0,29.95,West,269,0.0,4.0,75,0.00,,,0.00,weatherlink.com 1.10,2013-08-23 01:59:00,
2013-08-22 22:14:00,77.2,67.0,29.95,West,272,2.0,7.0,71,0.00,,,0.00,weatherlink.com 1.10,2013-08-23 02:14:00,
2013-08-22 22:29:00,76.7,67.0,29.95,West,278,4.0,5.0,71,0.00,,,0.00,weatherlink.com 1.10,2013-08-23 02:29:00,
2013-08-22 22:44:00,75.5,67.0,29.95,WNW,286,3.0,6.0,75,0.00,,,0.00,weatherlink.com 1.10,2013-08-23 02:44:00,
2013-08-22 22:59:00,74.2,67.0,29.95,WSW,248,1.0,8.0,77,0.00,,,0.00,weatherlink.com 1.10,2013-08-23 02:59:00,
2013-08-22 23:14:00,73.0,67.0,29.95,West,276,0.0,3.0,81,0.00,,,0.00,weatherlink.com 1.10,2013-08-23 03:14:00,
2013-08-22 23:29:00,72.1,66.0,29.96,West,269,0.0,5.0,82,0.00,,,0.00,weatherlink.com 1.10,2013-08-23 03:29:00,
2013-08-22 23:44:00,71.6,66.0,29.96,WNW,286,0.0,5.0,82,0.00,,,0.00,weatherlink.com 1.10,2013-08-23 03:44:00,